Time;durP1;ratioP1;P1;durP2;ratioP2;P2;SDS_P1;SDS_P2;PMS_P1;PMS_P2;Temp;Humidity;BMP_temperature;BMP_pressure;BME280_temperature;BME280_humidity;BME280_pressure;Samples;Min_cycle;Max_cycle;Signal;HPM_P1;HPM_P2
2023/05/28 00:01:13;;;;;;;33.35;14.60;;;17.90;99.90;;;18.32;76.79;102049.63;5083282;28;20392;-66
2023/05/28 00:03:41;;;;;;;29.27;14.40;;;17.90;99.90;;;18.32;76.85;102051.41;5085497;28;20483;-67
2023/05/28 00:06:10;;;;;;;40.53;15.02;;;17.90;99.90;;;18.28;76.84;102045.22;5087857;28;20055;-67
2023/05/28 00:08:39;;;;;;;31.95;14.77;;;17.80;99.90;;;18.21;76.90;102046.25;5083659;28;20093;-67
2023/05/28 00:11:07;;;;;;;35.03;15.02;;;17.80;99.90;;;17.98;77.06;101997.56;5080491;28;20699;-67
2023/05/28 00:13:37;;;;;;;36.70;15.05;;;17.80;99.90;;;18.28;77.00;102042.56;5087820;28;20463;-67
2023/05/28 00:16:06;;;;;;;35.17;14.87;;;17.80;99.90;;;18.24;77.08;102034.59;5085136;28;20512;-67
2023/05/28 00:18:34;;;;;;;36.92;15.68;;;17.80;99.90;;;18.23;77.01;102033.72;5086841;28;20493;-67
2023/05/28 00:21:03;;;;;;;33.75;15.02;;;17.80;99.90;;;18.24;76.83;102022.09;5085842;28;20037;-67
2023/05/28 00:23:31;;;;;;;28.77;14.52;;;17.80;99.90;;;18.26;76.83;102033.66;5085956;28;20106;-67
2023/05/28 00:25:59;;;;;;;35.70;15.32;;;17.80;99.90;;;18.16;77.33;102021.31;5086519;28;20119;-67
2023/05/28 00:28:28;;;;;;;30.00;14.52;;;17.80;99.90;;;18.01;77.35;101990.34;5085065;28;20409;-67
2023/05/28 00:30:58;;;;;;;34.63;14.88;;;17.80;99.90;;;18.20;77.27;102022.16;5103164;28;20051;-66
2023/05/28 00:33:26;;;;;;;40.13;16.63;;;17.70;99.90;;;18.21;77.36;102024.81;5099676;28;20057;-67
2023/05/28 00:35:55;;;;;;;33.30;15.15;;;17.80;99.90;;;18.07;77.86;102016.13;5080379;28;20032;-67
2023/05/28 00:38:25;;;;;;;32.25;16.35;;;17.60;99.90;;;17.99;78.34;102018.06;5086994;28;20093;-67
2023/05/28 00:40:54;;;;;;;35.20;16.60;;;17.60;99.90;;;17.95;78.48;102010.97;5100662;28;20146;-67
2023/05/28 00:43:23;;;;;;;39.58;16.00;;;17.60;99.90;;;17.98;78.65;102013.63;5084677;28;20072;-67
2023/05/28 00:45:52;;;;;;;39.78;16.58;;;17.60;99.90;;;18.00;78.73;102009.97;5086241;28;20044;-67
2023/05/28 00:48:22;;;;;;;39.22;16.90;;;17.60;99.90;;;17.99;78.81;102010.91;5084818;28;20054;-67
2023/05/28 00:50:50;;;;;;;34.43;16.13;;;17.60;99.90;;;17.72;79.20;101959.59;5086935;28;20484;-67
2023/05/28 00:53:19;;;;;;;32.15;15.90;;;17.60;99.90;;;17.92;79.02;102000.34;5084161;28;20052;-67
2023/05/28 00:55:49;;;;;;;41.00;17.13;;;17.50;99.90;;;17.93;79.23;102002.97;5061992;28;20059;-67
2023/05/28 00:58:19;;;;;;;44.80;17.38;;;17.50;99.90;;;17.94;79.16;102019.94;5080775;28;20075;-67
2023/05/28 01:00:48;;;;;;;33.53;16.48;;;17.50;99.90;;;17.88;79.22;102001.28;5086147;28;20058;-67
2023/05/28 01:03:17;;;;;;;35.50;16.50;;;17.50;99.90;;;17.88;79.30;102002.19;5084866;28;20052;-67
2023/05/28 01:05:48;;;;;;;35.63;16.70;;;17.50;99.90;;;17.87;79.87;102011.09;5085080;28;20517;-67
2023/05/28 01:08:16;;;;;;;36.60;16.40;;;17.40;99.90;;;17.84;80.07;102003.13;5086050;28;20044;-67
2023/05/28 01:10:46;;;;;;;33.85;16.48;;;17.40;99.90;;;17.88;79.90;101991.47;5083971;28;20048;-67
2023/05/28 01:13:14;;;;;;;37.92;17.60;;;17.40;99.90;;;17.86;79.67;102001.31;5086369;28;20113;-67
2023/05/28 01:15:43;;;;;;;40.35;16.92;;;17.40;99.90;;;17.88;79.84;101998.63;5079287;28;20056;-67
2023/05/28 01:18:13;;;;;;;36.63;16.70;;;17.40;99.90;;;17.72;80.03;101981.03;5086666;28;20044;-67
2023/05/28 01:20:41;;;;;;;32.57;16.53;;;17.40;99.90;;;17.73;80.31;101998.88;5083871;28;20052;-67
2023/05/28 01:23:20;;;;;;;34.15;16.90;;;17.30;99.90;;;17.72;80.26;101992.63;5085774;28;20290;-67
2023/05/28 01:25:52;;;;;;;36.92;16.25;;;17.30;99.90;;;17.79;80.28;101998.75;5086373;28;20300;-67
2023/05/28 01:28:22;;;;;;;32.30;16.65;;;17.30;99.90;;;17.79;80.19;102001.41;5078033;28;20105;-67
2023/05/28 01:30:51;;;;;;;33.22;16.60;;;17.30;99.90;;;17.80;80.33;102000.53;5086202;28;20051;-67
2023/05/28 01:33:20;;;;;;;34.40;16.85;;;17.40;99.90;;;17.81;80.27;102002.28;5066320;28;20412;-67
2023/05/28 01:35:49;;;;;;;36.22;16.60;;;17.30;99.90;;;17.07;80.33;101886.56;5083917;28;20052;-67
2023/05/28 01:38:21;;;;;;;36.72;16.70;;;17.30;99.90;;;17.72;80.58;102006.00;5100515;28;20135;-67
2023/05/28 01:40:56;;;;;;;36.42;17.17;;;17.30;99.90;;;17.74;80.48;102005.97;5082162;28;20051;-67
2023/05/28 01:43:25;;;;;;;35.85;17.00;;;17.30;99.90;;;17.53;81.01;101991.13;5078844;28;20051;-67
2023/05/28 01:45:54;;;;;;;38.20;17.95;;;17.30;99.90;;;17.66;80.82;102010.56;5085817;28;20059;-67
2023/05/28 01:48:23;;;;;;;32.90;15.88;;;17.20;99.90;;;17.65;81.09;102003.44;5083487;28;20136;-67
2023/05/28 01:50:53;;;;;;;33.85;16.60;;;17.20;99.90;;;17.61;81.38;102009.75;5083682;28;20154;-67
2023/05/28 01:53:22;;;;;;;32.75;16.10;;;17.20;99.90;;;17.42;81.34;101981.47;5100352;28;20504;-67
2023/05/28 01:55:51;;;;;;;34.38;17.23;;;17.10;99.90;;;17.56;81.85;102000.88;5082386;28;20036;-67
2023/05/28 01:58:21;;;;;;;38.45;16.60;;;17.10;99.90;;;17.51;81.92;102008.09;5100833;28;20139;-67
2023/05/28 02:01:02;;;;;;;35.70;16.35;;;17.00;99.90;;;17.54;81.86;102000.03;5081007;28;20068;-67
2023/05/28 02:03:30;;;;;;;34.33;15.88;;;17.10;99.90;;;17.36;81.73;101977.09;5097555;28;20048;-67
2023/05/28 02:05:59;;;;;;;33.58;15.80;;;17.00;99.90;;;17.49;81.48;101999.22;5082743;28;20130;-67
2023/05/28 02:08:27;;;;;;;36.75;16.63;;;17.00;99.90;;;17.41;81.48;101990.38;5100329;28;20106;-67
2023/05/28 02:10:55;;;;;;;44.15;16.23;;;17.00;99.90;;;17.44;81.76;102001.06;5083054;28;20048;-67
2023/05/28 02:13:27;;;;;;;37.40;16.23;;;17.00;99.90;;;17.44;81.65;101995.72;5085371;28;20051;-67
2023/05/28 02:15:56;;;;;;;32.10;15.70;;;17.00;99.90;;;17.28;81.87;101972.75;5069454;28;20052;-67
2023/05/28 02:18:26;;;;;;;29.75;16.33;;;16.90;99.90;;;17.42;82.05;101993.03;5084164;28;20394;-67
2023/05/28 02:20:54;;;;;;;37.63;16.02;;;17.00;99.90;;;17.39;82.02;101993.09;5065392;28;20051;-67
2023/05/28 02:23:23;;;;;;;32.15;15.77;;;16.90;99.90;;;17.40;82.02;101991.31;5082772;28;20055;-67
2023/05/28 02:25:51;;;;;;;33.38;16.02;;;16.90;99.90;;;17.33;82.23;101984.25;5098668;28;20398;-67
2023/05/28 02:28:20;;;;;;;32.90;16.33;;;16.90;99.90;;;17.31;82.34;101991.41;5083550;28;20058;-67
2023/05/28 02:30:49;;;;;;;32.05;14.73;;;16.90;99.90;;;17.35;82.00;101995.81;5084216;28;20048;-67
2023/05/28 02:33:18;;;;;;;37.17;16.53;;;16.90;99.90;;;17.30;81.90;101995.00;5115299;27;20048;-67
2023/05/28 02:35:46;;;;;;;33.30;15.70;;;16.90;99.90;;;17.32;82.04;101996.75;5083733;28;20325;-67
2023/05/28 02:38:15;;;;;;;39.72;16.40;;;16.90;99.90;;;17.26;82.27;101996.84;5080539;28;20040;-67
2023/05/28 02:40:43;;;;;;;33.78;16.45;;;16.80;99.90;;;17.24;82.26;101992.41;5077064;28;20497;-67
2023/05/28 02:43:13;;;;;;;32.00;16.13;;;16.80;99.90;;;17.22;82.51;102002.25;5083533;28;20076;-67
2023/05/28 02:45:42;;;;;;;37.05;16.45;;;16.80;99.90;;;17.22;82.62;102003.13;5098184;28;20048;-67
2023/05/28 02:48:12;;;;;;;36.15;16.42;;;16.80;99.90;;;17.20;82.60;101996.94;5083568;28;20055;-67
2023/05/28 02:50:40;;;;;;;31.70;15.35;;;16.80;99.90;;;17.24;82.25;101995.09;5083545;28;20551;-67
2023/05/28 02:53:31;;;;;;;28.48;14.93;;;16.80;99.90;;;17.22;82.26;101997.78;5079817;28;20127;-67
2023/05/28 02:56:00;;;;;;;36.08;16.45;;;16.80;99.90;;;17.23;82.44;102004.91;5081773;28;20146;-67
2023/05/28 02:58:30;;;;;;;32.97;15.55;;;16.80;99.90;;;17.19;82.62;101999.63;5066349;28;20128;-67
2023/05/28 03:00:58;;;;;;;36.42;16.40;;;16.70;99.90;;;17.16;82.83;102000.53;5080362;28;20431;-67
2023/05/28 03:03:28;;;;;;;36.03;16.55;;;16.60;99.90;;;17.09;82.71;101998.88;5060352;28;20068;-67
2023/05/28 03:05:57;;;;;;;36.25;16.17;;;16.60;99.90;;;17.01;82.66;101990.91;5072824;28;20052;-67
2023/05/28 03:08:27;;;;;;;34.33;16.25;;;16.60;99.90;;;16.93;82.76;101995.50;5099920;28;20040;-67
2023/05/28 03:10:56;;;;;;;35.08;15.98;;;16.50;99.90;;;16.91;82.89;101986.63;5064540;28;20056;-68
2023/05/28 03:13:24;;;;;;;36.85;17.17;;;16.50;99.90;;;16.96;83.04;102008.81;5115941;27;20052;-67
2023/05/28 03:15:53;;;;;;;36.00;16.52;;;16.50;99.90;;;16.94;83.03;102002.59;5098425;28;20044;-67
2023/05/28 03:18:22;;;;;;;35.72;15.43;;;16.50;99.90;;;16.88;83.27;102000.00;5081320;28;20044;-67
2023/05/28 03:20:53;;;;;;;35.00;17.38;;;16.50;99.90;;;16.91;83.19;102004.44;5099202;28;20056;-68
2023/05/28 03:23:22;;;;;;;32.35;16.42;;;16.40;99.90;;;16.90;82.97;102003.53;5096929;28;20048;-67
2023/05/28 03:26:13;;;;;;;33.53;17.08;;;16.50;99.90;;;16.87;82.97;102003.59;5082616;28;20130;-67
2023/05/28 03:28:42;;;;;;;37.17;16.50;;;16.50;99.90;;;16.83;82.75;102006.31;5076462;28;20045;-67
2023/05/28 03:31:31;;;;;;;35.53;17.08;;;16.40;99.90;;;16.64;82.92;102000.31;5070060;28;20373;-67
2023/05/28 03:34:02;;;;;;;37.88;17.38;;;16.40;99.90;;;16.84;82.68;102008.97;5082826;28;20047;-68
2023/05/28 03:36:34;;;;;;;34.72;16.33;;;16.40;99.90;;;16.85;82.53;102000.06;5079146;28;20139;-68
2023/05/28 03:39:02;;;;;;;34.58;17.15;;;16.40;99.90;;;16.79;82.56;101997.44;5084059;28;20052;-67
2023/05/28 03:41:31;;;;;;;35.40;16.92;;;16.40;99.90;;;16.88;82.70;102005.34;5064197;28;20044;-67
2023/05/28 03:44:00;;;;;;;32.47;18.23;;;16.40;99.90;;;16.34;82.81;101922.28;5082002;28;20043;-68
2023/05/28 03:46:28;;;;;;;34.95;17.80;;;16.40;99.90;;;16.84;82.72;101998.25;5097836;28;20055;-67
2023/05/28 03:48:57;;;;;;;32.03;16.55;;;16.50;99.90;;;16.80;82.66;101999.19;5080846;28;20052;-67
2023/05/28 03:51:27;;;;;;;33.60;17.13;;;16.40;99.90;;;16.79;82.77;101993.88;5082248;28;20048;-67
2023/05/28 03:53:57;;;;;;;36.80;16.75;;;16.40;99.90;;;16.82;82.90;102000.06;5079959;28;20795;-67
2023/05/28 03:56:26;;;;;;;34.43;17.77;;;16.40;99.90;;;16.81;82.80;102001.00;5117091;28;20428;-67
2023/05/28 03:58:55;;;;;;;32.00;16.35;;;16.40;99.90;;;16.89;82.59;102007.13;5077092;28;20120;-67
2023/05/28 04:01:23;;;;;;;30.85;16.27;;;16.50;99.90;;;16.84;82.68;101998.25;5083672;28;20109;-66
2023/05/28 04:03:52;;;;;;;33.10;16.08;;;16.40;99.90;;;16.82;82.68;102005.41;5097240;28;20080;-67
2023/05/28 04:06:21;;;;;;;34.00;16.42;;;16.40;99.90;;;16.83;82.67;102009.88;5082750;28;20048;-67
2023/05/28 04:08:49;;;;;;;35.58;16.80;;;16.50;99.90;;;16.80;82.69;102012.56;5081052;28;20131;-67
2023/05/28 04:11:21;;;;;;;34.92;16.25;;;16.40;99.90;;;16.75;82.95;102016.19;5097479;28;20044;-67
2023/05/28 04:13:51;;;;;;;30.45;15.63;;;16.40;99.90;;;16.70;82.96;102016.28;5082174;28;20489;-67
2023/05/28 04:16:22;;;;;;;33.03;16.42;;;16.40;99.90;;;16.72;83.14;102014.47;5079320;28;20417;-67
2023/05/28 04:18:51;;;;;;;27.38;15.48;;;16.40;99.90;;;16.77;83.17;102028.66;5080714;28;20053;-67
2023/05/28 04:21:21;;;;;;;33.42;15.85;;;16.40;99.90;;;16.78;83.29;102025.06;5082015;28;20123;-67
2023/05/28 04:23:49;;;;;;;33.57;16.70;;;16.40;99.90;;;16.74;83.23;102023.31;5097332;28;20045;-67
2023/05/28 04:26:20;;;;;;;33.58;16.13;;;16.40;99.90;;;16.74;83.17;102026.00;5080725;28;20294;-67
2023/05/28 04:28:48;;;;;;;;;;;16.40;99.90;;;16.74;83.18;102028.66;5065931;28;20059;-67
2023/05/28 04:31:17;;;;;;;35.78;16.10;;;16.40;99.90;;;16.78;83.27;102032.22;5079914;28;20332;-67
2023/05/28 04:33:46;;;;;;;36.35;16.40;;;16.40;99.90;;;16.76;83.57;102026.00;5082171;28;20047;-67
2023/05/28 04:36:15;;;;;;;33.67;16.70;;;16.40;99.90;;;16.80;83.39;102025.94;5078816;28;20505;-67
2023/05/28 04:38:43;;;;;;;34.33;16.02;;;16.40;99.90;;;16.78;83.26;102022.38;5080243;28;20040;-67
2023/05/28 04:41:14;;;;;;;37.33;15.95;;;16.40;99.90;;;16.61;83.43;101994.97;5082077;28;20055;-67
2023/05/28 04:43:44;;;;;;;34.38;15.52;;;16.40;99.90;;;16.86;83.09;102020.50;5080208;28;20417;-67
2023/05/28 04:46:13;;;;;;;38.13;17.33;;;16.40;99.90;;;16.88;83.24;102034.75;5082129;28;20044;-66
2023/05/28 04:48:42;;;;;;;31.67;15.27;;;16.50;99.90;;;16.87;83.09;102022.31;5083745;28;20090;-67
2023/05/28 04:51:10;;;;;;;32.58;15.57;;;16.50;99.90;;;16.95;83.19;102025.78;5083537;28;21000;-67
2023/05/28 04:53:38;;;;;;;33.00;15.43;;;16.60;99.90;;;16.91;83.09;102023.16;5086650;28;20086;-67
2023/05/28 04:56:07;;;;;;;33.30;15.30;;;16.50;99.90;;;16.91;83.04;102013.34;5084182;28;20098;-66
2023/05/28 04:58:36;;;;;;;32.38;15.65;;;16.50;99.90;;;16.92;83.03;102020.44;5062308;28;20048;-67
2023/05/28 05:01:07;;;;;;;32.80;15.35;;;16.60;99.90;;;16.96;83.14;102024.84;5080074;28;20087;-67
2023/05/28 05:03:37;;;;;;;30.98;15.32;;;16.60;99.90;;;16.97;83.28;102020.41;5084941;28;20055;-67
2023/05/28 05:06:06;;;;;;;28.45;15.30;;;16.60;99.90;;;17.04;82.94;102027.44;5100584;28;20052;-67
2023/05/28 05:08:35;;;;;;;32.63;15.20;;;16.70;99.90;;;17.07;83.04;102028.28;5083922;28;20044;-67
2023/05/28 05:11:06;;;;;;;30.33;14.88;;;16.70;99.90;;;17.15;82.73;102031.75;5084712;28;20052;-67
2023/05/28 05:13:34;;;;;;;;;;;16.80;99.90;;;17.23;82.67;102022.75;5100165;28;20044;-67
2023/05/28 05:16:04;;;;;;;27.75;14.25;;;16.90;99.90;;;17.26;82.25;102026.25;5078998;28;19921;-67
2023/05/28 05:18:33;;;;;;;30.92;15.27;;;16.90;99.90;;;17.30;81.99;102028.00;5078875;28;20053;-67
2023/05/28 05:21:02;;;;;;;26.65;14.75;;;16.90;99.90;;;17.36;82.12;102024.34;5102296;28;20493;-68
2023/05/28 05:23:30;;;;;;;30.30;13.70;;;17.00;99.90;;;17.38;82.01;102030.56;5082853;28;20063;-68
2023/05/28 05:25:58;;;;;;;31.63;14.40;;;17.00;99.90;;;17.46;82.03;102032.22;5085520;28;20043;-68
2023/05/28 05:28:28;;;;;;;27.40;13.98;;;17.10;99.90;;;17.35;81.83;102014.53;5083504;28;20056;-70
2023/05/28 05:31:00;;;;;;;26.65;13.68;;;17.10;99.90;;;17.46;81.88;102036.69;5099788;28;20044;-67
2023/05/28 05:33:29;;;;;;;33.97;14.55;;;17.10;99.90;;;17.57;81.60;102035.66;5101854;28;20382;-67
2023/05/28 05:36:17;;;;;;;30.25;15.63;;;17.20;99.90;;;17.59;81.73;102041.88;5083459;28;20065;-68
2023/05/28 05:39:11;;;;;;;28.40;14.00;;;17.20;99.90;;;17.77;81.30;102049.63;5067729;28;20132;-68
2023/05/28 05:41:59;;;;;;;31.30;15.68;;;17.30;99.90;;;17.89;80.89;102054.81;5096722;28;20131;-68
2023/05/28 05:44:31;;;;;;;31.48;14.10;;;17.50;99.90;;;17.98;80.50;102046.63;5100131;28;20050;-69
2023/05/28 05:47:00;;;;;;;28.85;14.57;;;17.60;99.90;;;17.98;79.97;102069.84;5084124;28;20048;-68
2023/05/28 05:49:30;;;;;;;29.95;13.77;;;17.70;99.90;;;18.04;79.65;102035.81;5083515;28;20048;-68
2023/05/28 05:51:58;;;;;;;30.60;13.88;;;17.70;99.90;;;18.19;79.21;102044.50;5085950;28;20089;-68
2023/05/28 05:54:28;;;;;;;33.38;14.63;;;17.80;99.90;;;18.18;78.90;102040.94;5077687;28;20416;-68
2023/05/28 05:56:57;;;;;;;35.10;15.02;;;17.80;99.90;;;18.32;79.35;102040.69;5085766;28;20412;-69
2023/05/28 05:59:26;;;;;;;30.08;13.45;;;17.90;99.90;;;18.32;78.56;102046.94;5098823;28;20455;-69
2023/05/28 06:01:56;;;;;;;29.20;13.73;;;18.00;99.90;;;18.45;78.60;102047.63;5083063;28;20482;-67
2023/05/28 06:04:31;;;;;;;29.88;13.55;;;18.10;99.90;;;18.48;77.84;102052.97;5117348;27;20441;-69
2023/05/28 06:07:21;;;;;;;29.30;13.50;;;18.10;99.90;;;18.51;77.27;102053.78;5083101;28;20044;-68
2023/05/28 06:10:10;;;;;;;28.55;14.00;;;18.10;99.90;;;18.61;77.57;102033.94;5080655;28;20666;-68
2023/05/28 06:12:39;;;;;;;30.85;14.13;;;18.30;99.90;;;18.61;77.02;102035.72;5082806;28;20048;-68
2023/05/28 06:15:09;;;;;;;31.65;12.90;;;18.40;99.90;;;18.73;76.46;102047.13;5083357;28;20052;-68
2023/05/28 06:17:37;;;;;;;28.95;13.75;;;18.40;99.90;;;18.78;76.46;102047.91;5081927;28;20049;-68
2023/05/28 06:20:10;;;;;;;28.45;12.43;;;18.40;99.90;;;18.88;76.20;102053.97;5061116;28;20053;-68
2023/05/28 06:22:39;;;;;;;34.13;13.70;;;18.50;99.90;;;18.82;75.68;102059.44;5078363;28;20068;-68
2023/05/28 06:25:08;;;;;;;25.30;12.70;;;18.50;99.90;;;18.87;75.61;102049.53;5083750;28;20048;-68
2023/05/28 06:27:38;;;;;;;;;;;18.50;99.90;;;18.90;75.86;102046.78;5082319;28;20045;-68
2023/05/28 06:30:08;;;;;;;31.83;13.68;;;18.50;99.90;;;18.84;75.63;102039.75;5084003;28;20295;-68
2023/05/28 06:32:38;;;;;;;27.35;13.40;;;18.50;99.90;;;18.92;75.97;102048.53;5099842;28;20052;-68
2023/05/28 06:35:09;;;;;;;28.80;13.60;;;18.60;99.90;;;19.02;75.81;102042.97;5098430;28;20547;-68
2023/05/28 06:37:37;;;;;;;27.73;14.10;;;18.60;99.90;;;19.14;75.60;102061.50;5084063;28;20479;-68
2023/05/28 06:40:10;;;;;;;29.50;13.35;;;18.80;99.90;;;19.21;75.28;102050.59;5078389;28;20379;-68
2023/05/28 06:42:39;;;;;;;29.30;13.02;;;18.80;99.90;;;19.28;75.13;102054.06;5083322;28;20048;-68
2023/05/28 06:45:11;;;;;;;28.15;13.80;;;18.90;99.90;;;19.24;75.19;102033.56;5116111;27;20067;-68
2023/05/28 06:47:40;;;;;;;25.00;13.63;;;19.00;99.90;;;19.36;74.72;102060.16;5081674;28;20127;-68
2023/05/28 06:50:11;;;;;;;29.52;13.55;;;19.00;99.90;;;19.36;74.54;102047.63;5099625;28;20060;-68
2023/05/28 06:52:39;;;;;;;;;;;19.10;99.90;;;19.56;74.33;102055.25;5077722;28;20077;-68
2023/05/28 06:55:08;;;;;;;29.80;13.70;;;19.20;99.90;;;19.65;73.93;102046.97;5059864;28;20332;-68
2023/05/28 06:57:44;;;;;;;25.02;13.45;;;19.30;99.90;;;19.79;74.05;102055.59;5075415;28;20104;-68
2023/05/28 07:00:32;;;;;;;25.20;12.55;;;19.40;99.90;;;19.83;73.15;102051.94;5076232;28;20059;-68
2023/05/28 07:03:39;;;;;;;29.95;14.07;;;19.50;99.90;;;19.90;72.64;102055.38;5060586;28;20060;-68
2023/05/28 07:06:22;;;;;;;27.85;13.43;;;19.60;99.90;;;19.95;73.14;102062.38;5054663;28;20353;-69
2023/05/28 07:08:50;;;;;;;27.88;13.32;;;19.60;99.90;;;20.17;72.84;102063.63;5065999;28;20435;-68
2023/05/28 07:11:19;;;;;;;28.17;13.85;;;19.80;99.90;;;20.28;72.13;102063.41;5097077;28;20060;-68
2023/05/28 07:13:48;;;;;;;28.73;14.00;;;19.90;99.90;;;20.37;71.13;102074.78;5081978;28;20134;-68
2023/05/28 07:16:17;;;;;;;25.10;12.93;;;20.10;99.90;;;20.57;71.24;102071.59;5098710;28;20051;-68
2023/05/28 07:18:46;;;;;;;25.00;12.80;;;20.20;99.90;;;20.68;71.21;102078.44;5081061;28;20105;-69
2023/05/28 07:21:15;;;;;;;29.58;13.50;;;20.30;99.90;;;20.83;70.55;102068.22;5065997;28;20055;-70
2023/05/28 07:23:47;;;;;;;25.05;12.60;;;20.50;99.90;;;20.97;69.85;102079.44;5079647;28;20052;-69
2023/05/28 07:26:16;;;;;;;22.80;12.02;;;20.60;99.90;;;21.12;68.65;102079.94;5092853;28;20055;-68
2023/05/28 07:28:45;;;;;;;26.40;12.23;;;20.80;99.90;;;21.24;67.59;102089.47;5082831;28;20047;-69
2023/05/28 07:31:13;;;;;;;23.13;12.05;;;20.90;99.90;;;21.33;67.33;102086.53;5097401;28;20110;-69
2023/05/28 07:33:45;;;;;;;25.08;12.02;;;21.00;99.90;;;21.44;67.06;102081.69;5081552;28;20476;-68
2023/05/28 07:36:15;;;;;;;23.42;12.48;;;21.00;99.90;;;21.58;67.23;102092.94;5098544;28;20076;-68
2023/05/28 07:38:44;;;;;;;25.02;12.13;;;21.20;99.90;;;21.60;66.05;102083.00;5080381;28;20052;-69
2023/05/28 07:41:13;;;;;;;27.70;11.80;;;21.30;99.90;;;21.73;65.95;102089.78;5066434;28;20136;-69
2023/05/28 07:43:48;;;;;;;26.00;11.43;;;21.40;99.90;;;21.82;66.09;102092.22;5076434;28;20114;-68
2023/05/28 07:46:21;;;;;;;24.98;11.82;;;21.50;99.90;;;21.96;65.17;102089.97;5098442;28;20044;-68
2023/05/28 07:48:55;;;;;;;24.75;11.65;;;21.70;99.90;;;22.10;64.48;102089.53;5099418;28;20130;-69
2023/05/28 07:51:27;;;;;;;24.20;11.40;;;21.70;99.90;;;22.25;64.73;102089.91;5113504;27;20055;-68
2023/05/28 07:54:08;;;;;;;22.30;10.85;;;21.90;99.90;;;22.28;63.68;102097.88;5078847;28;20494;-69
2023/05/28 07:56:38;;;;;;;22.80;11.73;;;22.00;99.90;;;22.39;62.86;102098.44;5080724;28;20087;-68
2023/05/28 07:59:11;;;;;;;20.17;10.60;;;22.10;99.90;;;22.48;62.87;102096.34;5098947;28;20082;-68
2023/05/28 08:01:45;;;;;;;20.00;10.55;;;22.20;99.90;;;22.50;62.73;102099.84;5109570;27;20101;-68
2023/05/28 08:04:14;;;;;;;21.58;10.52;;;22.20;99.90;;;22.58;62.52;102087.03;5082023;28;20044;-69
2023/05/28 08:06:43;;;;;;;20.70;10.73;;;22.30;99.90;;;22.45;61.15;102087.41;5064237;28;20055;-69
2023/05/28 08:09:17;;;;;;;;;;;22.20;99.90;;;22.55;61.46;102101.47;5081532;28;20070;-68
2023/05/28 08:11:50;;;;;;;22.92;10.68;;;22.30;99.90;;;22.56;61.40;102091.56;5076250;28;19931;-68
2023/05/28 08:14:20;;;;;;;21.98;9.88;;;22.30;99.90;;;22.68;61.03;102083.09;5092284;28;20083;-70
2023/05/28 08:16:51;;;;;;;19.73;9.52;;;22.40;99.90;;;22.78;61.23;102090.81;5082341;28;20056;-68
2023/05/28 08:19:43;;;;;;;18.00;10.00;;;22.50;99.90;;;22.98;60.82;102096.38;5076727;28;20490;-68
2023/05/28 08:22:51;;;;;;;22.38;9.77;;;22.70;99.90;;;22.87;57.85;102090.47;5077348;28;20390;-70
2023/05/28 08:25:19;;;;;;;16.98;9.25;;;22.70;99.90;;;23.06;59.06;102094.28;5084211;28;20066;-69
2023/05/28 08:27:52;;;;;;;20.60;9.82;;;22.80;99.90;;;23.15;58.22;102095.78;5086109;28;20044;-68
2023/05/28 08:30:21;;;;;;;23.60;9.57;;;22.90;99.90;;;23.25;58.31;102083.66;5080106;28;20048;-69
2023/05/28 08:32:59;;;;;;;17.17;8.98;;;23.00;99.90;;;22.95;56.18;102082.09;5084995;28;20555;-69
2023/05/28 08:35:27;;;;;;;20.40;9.93;;;22.80;99.90;;;23.08;56.86;102088.81;5101583;28;20404;-69
2023/05/28 08:37:58;;;;;;;17.80;9.35;;;22.80;99.90;;;23.17;56.88;102088.50;5083666;28;20053;-68
2023/05/28 08:40:41;;;;;;;20.40;9.48;;;22.80;99.90;;;23.01;56.62;102050.38;5096119;28;20509;-68
2023/05/28 08:43:11;;;;;;;20.27;9.05;;;22.90;99.90;;;23.35;56.61;102087.81;5084797;28;20052;-70
2023/05/28 08:45:41;;;;;;;22.40;9.55;;;23.00;99.90;;;23.54;55.74;102088.03;5068561;28;20072;-69
2023/05/28 08:48:13;;;;;;;19.35;8.73;;;23.20;99.90;;;23.51;55.81;102093.53;5083367;28;20174;-69
2023/05/28 08:50:47;;;;;;;20.58;9.10;;;23.20;99.90;;;23.65;55.98;102094.78;5120121;27;20044;-69
2023/05/28 08:53:25;;;;;;;18.70;9.07;;;23.30;99.90;;;23.72;55.63;102093.56;5098625;28;20487;-68
2023/05/28 08:55:59;;;;;;;23.20;9.95;;;23.40;99.90;;;23.75;55.80;102101.56;5083503;28;20451;-69
2023/05/28 08:58:36;;;;;;;23.00;9.52;;;23.40;99.90;;;23.76;55.67;102095.22;5062755;28;20060;-68
2023/05/28 09:01:07;;;;;;;25.27;9.80;;;23.50;99.90;;;23.82;55.74;102094.97;5086335;28;20056;-69
2023/05/28 09:03:40;;;;;;;19.77;9.70;;;23.50;99.90;;;23.85;55.66;102089.44;5101317;28;20049;-69
2023/05/28 09:06:17;;;;;;;19.13;9.70;;;23.60;99.90;;;23.93;55.73;102099.94;5078491;28;20048;-68
2023/05/28 09:08:46;;;;;;;21.27;9.63;;;23.60;99.90;;;24.03;55.15;102087.84;5102490;28;20055;-68
2023/05/28 09:11:26;;;;;;;23.63;10.20;;;23.70;99.90;;;24.05;55.18;102085.97;5068102;28;20074;-68
2023/05/28 09:13:56;;;;;;;19.80;9.50;;;23.80;99.90;;;24.08;54.59;102073.19;5082866;28;20151;-68
2023/05/28 09:16:25;;;;;;;22.15;9.63;;;23.90;99.90;;;24.11;54.71;102081.22;5102020;28;20067;-70
2023/05/28 09:19:05;;;;;;;22.02;9.60;;;23.80;99.90;;;24.18;54.07;102088.13;5080011;28;20049;-69
2023/05/28 09:21:36;;;;;;;20.88;9.18;;;23.90;99.90;;;24.11;54.14;102092.03;5100719;28;20105;-69
2023/05/28 09:24:07;;;;;;;21.67;9.45;;;23.80;99.90;;;24.04;53.46;102101.31;5118752;27;20055;-69
2023/05/28 09:27:11;;;;;;;23.17;9.68;;;23.80;99.90;;;24.05;53.90;102089.56;5040831;28;20037;-69
2023/05/28 09:29:42;;;;;;;21.10;9.50;;;23.80;99.90;;;23.83;53.99;102095.84;5069573;28;20052;-69
2023/05/28 09:32:11;;;;;;;20.40;9.90;;;23.60;99.90;;;23.67;54.12;102083.91;5084209;28;20293;-69
2023/05/28 09:34:43;;;;;;;23.35;9.90;;;23.50;99.90;;;23.79;55.25;102086.97;5084497;28;20717;-69
2023/05/28 09:37:11;;;;;;;23.48;10.30;;;23.50;99.90;;;23.92;54.36;102082.88;5100956;28;20410;-69
2023/05/28 09:39:40;;;;;;;18.50;9.57;;;23.60;99.90;;;23.91;54.09;102086.50;5083550;28;20853;-70
2023/05/28 09:42:09;;;;;;;21.33;9.80;;;23.60;99.90;;;24.08;54.62;102081.31;5101758;28;20097;-69
2023/05/28 09:44:40;;;;;;;19.13;9.55;;;23.70;99.90;;;24.15;54.35;102081.97;5082622;28;20417;-69
2023/05/28 09:47:17;;;;;;;17.73;8.95;;;23.80;99.90;;;24.24;53.85;102077.97;5079141;28;20055;-70
2023/05/28 09:49:47;;;;;;;20.00;8.82;;;24.00;99.90;;;24.14;53.21;102091.88;5084414;28;20116;-70
2023/05/28 09:52:20;;;;;;;17.95;8.98;;;23.90;99.90;;;24.39;52.98;102096.28;5084113;28;20060;-69
2023/05/28 09:54:52;;;;;;;18.60;8.68;;;24.10;99.90;;;24.47;52.61;102088.72;5086478;28;20094;-69
2023/05/28 09:57:26;;;;;;;25.17;10.70;;;24.20;99.90;;;24.50;51.79;102091.31;5079761;28;20052;-69
2023/05/28 09:59:56;;;;;;;24.25;9.32;;;24.20;99.90;;;24.54;52.06;102084.81;5084568;28;20044;-69
2023/05/28 10:02:36;;;;;;;17.08;7.95;;;24.30;99.90;;;24.68;52.20;102093.22;5084664;28;20048;-69
2023/05/28 10:05:09;;;;;;;22.27;9.30;;;24.40;99.90;;;24.75;51.83;102076.69;5079009;28;20109;-69
2023/05/28 10:07:41;;;;;;;21.65;8.93;;;24.60;99.90;;;24.82;51.52;102079.97;5084795;28;20117;-69
2023/05/28 10:10:12;;;;;;;17.85;8.48;;;24.60;99.90;;;24.91;51.68;102082.31;5084338;28;20098;-69
2023/05/28 10:12:41;;;;;;;20.63;8.98;;;24.60;99.90;;;25.05;51.29;102088.84;5082980;28;20041;-69
2023/05/28 10:15:11;;;;;;;16.48;7.85;;;24.80;99.90;;;25.02;50.08;102089.00;5085536;28;20464;-69
2023/05/28 10:17:42;;;;;;;18.77;9.65;;;24.80;99.90;;;25.08;50.83;102082.44;5078623;28;20048;-69
2023/05/28 10:20:12;;;;;;;18.20;8.85;;;24.80;99.90;;;25.18;50.36;102100.03;5054346;28;20056;-69